Portada
METAR-TAF:

METAR-TAF

Aeroports :

Aeroport Suvarnabhumi

Bangkok-Suvarnabhumi, Tailàndia

latitud: 13-40-52N, longitud: 100-44-50E, altitud: 2 m

Observació

L'informe es va fer fa 21 minuts, a les 15:00 UTC
Vent 11 kt del Sud/Sud-Oest
Temperatura 29°C
Humitat 79%
Pressió 1009 hPa
Visibilitat: 9000 m
Escasses núvols a una alçada de 3000 ft

METAR: VTBS 311500Z 20011KT 9000 FEW030 29/25 Q1009 NOSIG

Hora: 22:21 (15:21 UTC)

Pronòstic

L'informe es va fer fa 4 hores i 21 minuts, a les 11:00 UTC
Pronòstic vàlid del 31 a les 12 UTC al 01 a les 18 UTC
Vent 10 kt del Sud
Visibilitat: 9000 m
Escasses núvols a una alçada de 2500 ft
Evolucionant progressivament
l' 31 a les 22 UTC al 31 a les 24 UTC
Vent 5 kt del Sud-Est
Evolucionant progressivament
l' 01 a les 01 UTC al 01 a les 03 UTC
Vent 10 kt del Sud

TAF: VTBS 311100Z 3112/0118 19010KT 9000 FEW025 BECMG 3122/3124 13005KT BECMG 0101/0103 19010KT

Observacions i pronòstics meteorològics de més de 4000 aeroports (METAR i TAF).

Les estacions disponibles són els punts grocs i vermells al mapa.

Posi el ratolí al punt desitjat per veure el nom de l'estació.

Feu clic per veure les observacions i els pronòstics meteorològics.

Per canviar el mapa: feu clic els botons verds amb una creu de color negre per apropar; al botó verd amb un guió per allunyar la imatge; o en les fletxes verdes per a mapes adjacents.


METAR-TAF: